Time;durP1;ratioP1;P1;durP2;ratioP2;P2;SDS_P1;SDS_P2;PMS_P1;PMS_P2;Temp;Humidity;BMP_temperature;BMP_pressure;BME280_temperature;BME280_humidity;BME280_pressure;Samples;Min_cycle;Max_cycle;Signal;HPM_P1;HPM_P2
2022/04/20 00:01:57;;;;;;;4.88;3.28;;;9.70;20.00;;;;;;4992973;28;20897;-72
2022/04/20 00:04:22;;;;;;;7.03;3.67;;;9.70;20.00;;;;;;4995804;28;20414;-72
2022/04/20 00:06:48;;;;;;;5.70;3.30;;;9.70;19.90;;;;;;4993909;28;20406;-71
2022/04/20 00:09:13;;;;;;;4.70;3.50;;;9.60;19.90;;;;;;4992297;28;20413;-71
2022/04/20 00:11:39;;;;;;;4.17;3.10;;;9.40;21.50;;;;;;4997861;28;20429;-73
2022/04/20 00:14:05;;;;;;;7.67;3.27;;;9.30;21.00;;;;;;4993939;28;20465;-73
2022/04/20 00:16:30;;;;;;;4.23;3.27;;;9.20;20.20;;;;;;4993615;28;20403;-73
2022/04/20 00:18:56;;;;;;;5.70;3.50;;;9.10;20.50;;;;;;5013105;28;20429;-72
2022/04/20 00:21:21;;;;;;;6.20;3.63;;;9.00;21.30;;;;;;5020148;28;20397;-71
2022/04/20 00:23:47;;;;;;;4.10;3.00;;;8.90;22.80;;;;;;5021394;28;20404;-73
2022/04/20 00:26:12;;;;;;;7.37;3.40;;;9.00;21.60;;;;;;5021447;28;20412;-73
2022/04/20 00:28:38;;;;;;;5.27;3.40;;;8.90;21.30;;;;;;5013738;28;20401;-73
2022/04/20 00:31:03;;;;;;;5.33;3.60;;;8.80;21.20;;;;;;5004611;28;20466;-73
2022/04/20 00:33:29;;;;;;;3.37;3.00;;;8.80;21.60;;;;;;5008606;28;20404;-73
2022/04/20 00:35:55;;;;;;;4.87;3.27;;;8.80;22.10;;;;;;5010906;28;20432;-75
2022/04/20 00:38:20;;;;;;;5.18;3.20;;;8.80;21.90;;;;;;4999055;28;20450;-75
2022/04/20 00:40:47;;;;;;;5.75;3.30;;;8.80;23.20;;;;;;5006317;28;20402;-75
2022/04/20 00:43:14;;;;;;;6.80;3.22;;;8.90;24.30;;;;;;5001428;28;20401;-75
2022/04/20 00:45:42;;;;;;;4.25;3.22;;;9.00;23.40;;;;;;5014607;28;20424;-75
2022/04/20 00:48:10;;;;;;;5.05;3.20;;;9.10;22.00;;;;;;5009957;28;20408;-76
2022/04/20 00:50:36;;;;;;;5.47;3.30;;;9.10;21.60;;;;;;5015164;28;20405;-75
2022/04/20 00:53:02;;;;;;;3.75;3.03;;;9.00;22.00;;;;;;4997279;28;20396;-75
2022/04/20 00:55:28;;;;;;;3.57;3.20;;;8.90;22.30;;;;;;4994818;28;20745;-75
2022/04/20 00:57:53;;;;;;;6.90;3.20;;;8.80;22.70;;;;;;4991802;28;20409;-75
2022/04/20 01:00:19;;;;;;;4.80;3.40;;;9.00;22.40;;;;;;5003335;28;20494;-75
2022/04/20 01:02:45;;;;;;;4.90;2.90;;;9.00;22.10;;;;;;5006245;28;20404;-74
2022/04/20 01:05:10;;;;;;;4.30;2.70;;;8.80;22.60;;;;;;5008047;28;20956;-74
2022/04/20 01:07:37;;;;;;;4.43;3.10;;;8.80;23.50;;;;;;4991179;28;20895;-74
2022/04/20 01:10:04;;;;;;;5.43;3.17;;;8.70;23.70;;;;;;4992330;28;20896;-74
2022/04/20 01:12:30;;;;;;;5.68;2.90;;;8.70;24.20;;;;;;5001112;28;20399;-74
2022/04/20 01:14:56;;;;;;;6.22;3.47;;;8.60;23.40;;;;;;5006445;28;20402;-75
2022/04/20 01:17:21;;;;;;;3.23;2.93;;;8.50;23.50;;;;;;5002358;28;20466;-74
2022/04/20 01:19:47;;;;;;;5.20;3.33;;;8.50;23.60;;;;;;4996191;28;20401;-74
2022/04/20 01:22:12;;;;;;;3.50;3.10;;;8.60;23.80;;;;;;4993313;28;20398;-74
2022/04/20 01:24:39;;;;;;;4.60;2.90;;;8.60;23.10;;;;;;4993306;28;20401;-74
2022/04/20 01:27:05;;;;;;;3.92;2.83;;;8.70;22.30;;;;;;4987494;28;20791;-75
2022/04/20 01:29:32;;;;;;;3.75;2.70;;;8.40;22.90;;;;;;4997139;28;20402;-75
2022/04/20 01:31:57;;;;;;;5.10;3.30;;;8.20;24.60;;;;;;4992891;28;20396;-75
2022/04/20 01:34:23;;;;;;;3.77;2.70;;;8.20;24.90;;;;;;4994269;28;20819;-74
2022/04/20 01:36:49;;;;;;;3.93;3.00;;;8.10;25.50;;;;;;4992624;28;20425;-74
2022/04/20 01:39:16;;;;;;;4.82;3.20;;;8.10;26.10;;;;;;4995297;28;20902;-74
2022/04/20 01:41:42;;;;;;;4.75;3.30;;;8.10;25.90;;;;;;4995640;28;20414;-74
2022/04/20 01:44:08;;;;;;;7.13;3.08;;;8.30;25.30;;;;;;4996610;28;20413;-74
2022/04/20 01:46:34;;;;;;;3.67;2.97;;;8.60;25.00;;;;;;4999099;28;20467;-74
2022/04/20 01:49:01;;;;;;;5.27;3.67;;;8.30;24.20;;;;;;5009489;28;20412;-74
2022/04/20 01:54:11;;;;;;;6.43;3.20;;;8.30;25.80;;;;;;5000376;28;20848;-74
2022/04/20 01:56:37;;;;;;;6.97;3.20;;;8.30;25.70;;;;;;5010806;28;20411;-73
2022/04/20 01:59:03;;;;;;;4.82;3.13;;;8.10;25.60;;;;;;5010965;28;20489;-74
2022/04/20 02:04:13;;;;;;;7.22;3.50;;;7.90;26.70;;;;;;4993434;28;20475;-75
2022/04/20 02:06:38;;;;;;;4.55;3.33;;;7.80;27.00;;;;;;5012356;28;20746;-75
2022/04/20 02:09:04;;;;;;;3.88;3.30;;;7.80;27.00;;;;;;5013359;28;20425;-75
2022/04/20 02:11:30;;;;;;;7.57;3.20;;;7.70;28.30;;;;;;5003254;28;20478;-75
2022/04/20 02:13:58;;;;;;;5.55;3.35;;;7.70;28.20;;;;;;5014384;28;20413;-75
2022/04/20 02:16:23;;;;;;;5.13;3.22;;;7.70;27.80;;;;;;5023548;28;20404;-75
2022/04/20 02:18:49;;;;;;;7.38;3.75;;;7.70;27.50;;;;;;5022184;28;20393;-75
2022/04/20 02:21:15;;;;;;;6.22;3.22;;;8.00;26.70;;;;;;5021150;28;20463;-74
2022/04/20 02:23:40;;;;;;;6.30;3.10;;;7.90;25.50;;;;;;5009631;28;20486;-75
2022/04/20 02:26:06;;;;;;;5.80;2.90;;;7.90;26.00;;;;;;5022419;28;20419;-76
2022/04/20 02:28:31;;;;;;;5.17;3.23;;;8.10;24.80;;;;;;5024495;28;20400;-74
2022/04/20 02:30:57;;;;;;;7.77;3.40;;;8.30;24.30;;;;;;5015101;28;20424;-75
2022/04/20 02:33:22;;;;;;;5.83;3.10;;;8.30;23.50;;;;;;5008576;28;20441;-73
2022/04/20 02:35:48;;;;;;;4.73;2.90;;;8.50;22.50;;;;;;5011604;28;20410;-74
2022/04/20 02:38:18;;;;;;;7.20;3.37;;;8.50;24.20;;;;;;5007311;28;20402;-73
2022/04/20 02:40:44;;;;;;;4.05;3.20;;;8.50;24.30;;;;;;5009758;28;20540;-75
2022/04/20 02:43:10;;;;;;;5.82;3.10;;;8.80;22.60;;;;;;5005311;28;20403;-74
2022/04/20 02:45:36;;;;;;;6.57;3.28;;;8.80;22.30;;;;;;5016923;28;20417;-74
2022/04/20 02:48:02;;;;;;;7.80;4.30;;;9.00;20.40;;;;;;5017939;28;20440;-74
2022/04/20 02:50:28;;;;;;;7.82;3.10;;;9.00;20.60;;;;;;5012857;28;20835;-74
2022/04/20 02:52:58;;;;;;;8.15;3.28;;;9.00;21.50;;;;;;5002175;28;20442;-74
2022/04/20 02:55:23;;;;;;;5.05;3.20;;;9.00;21.30;;;;;;5008479;28;20402;-75
2022/04/20 02:57:49;;;;;;;5.07;3.30;;;9.20;20.00;;;;;;5007096;28;20942;-75
2022/04/20 03:00:15;;;;;;;7.30;3.20;;;9.20;21.40;;;;;;5008448;28;20406;-74
2022/04/20 03:02:41;;;;;;;4.10;2.95;;;9.10;20.30;;;;;;5016846;28;20870;-75
2022/04/20 03:05:07;;;;;;;6.70;3.30;;;9.00;20.90;;;;;;5008682;28;20412;-75
2022/04/20 03:07:33;;;;;;;5.70;3.40;;;9.20;20.00;;;;;;5008043;28;20750;-74
2022/04/20 03:09:58;;;;;;;8.10;2.97;;;9.00;20.10;;;;;;5005887;28;20391;-75
2022/04/20 03:12:24;;;;;;;4.47;2.80;;;8.90;21.00;;;;;;4998322;28;20481;-74
2022/04/20 03:14:51;;;;;;;5.22;3.00;;;9.00;20.80;;;;;;4997688;28;20415;-75
2022/04/20 03:17:17;;;;;;;6.47;2.90;;;9.00;21.50;;;;;;4998552;28;20388;-74
2022/04/20 03:19:43;;;;;;;5.97;3.30;;;8.90;21.30;;;;;;5007333;28;20393;-75
2022/04/20 03:22:08;;;;;;;4.90;2.50;;;8.80;21.90;;;;;;4995174;28;20905;-75
2022/04/20 03:24:34;;;;;;;7.70;2.95;;;8.60;20.90;;;;;;4996109;28;20402;-75
2022/04/20 03:27:00;;;;;;;8.02;3.10;;;8.70;21.40;;;;;;4996165;28;20412;-75
2022/04/20 03:29:25;;;;;;;6.18;3.50;;;8.80;21.20;;;;;;4995215;28;20449;-75
2022/04/20 03:31:53;;;;;;;5.15;2.80;;;9.00;22.30;;;;;;4989691;28;20411;-75
2022/04/20 03:34:18;;;;;;;4.10;3.00;;;8.90;21.50;;;;;;4998015;28;20465;-74
2022/04/20 03:36:44;;;;;;;5.28;3.70;;;8.90;20.90;;;;;;4995589;28;20394;-75
2022/04/20 03:39:09;;;;;;;5.35;2.80;;;9.00;21.30;;;;;;4995067;28;20393;-75
2022/04/20 03:41:35;;;;;;;6.20;3.10;;;9.10;19.80;;;;;;5000163;28;20451;-75
2022/04/20 03:44:01;;;;;;;7.18;3.47;;;9.10;20.00;;;;;;5001895;28;20407;-74
2022/04/20 03:46:26;;;;;;;8.70;3.65;;;9.10;19.50;;;;;;5006322;28;20406;-75
2022/04/20 03:48:52;;;;;;;6.43;3.45;;;9.20;19.20;;;;;;4998633;28;20831;-75
2022/04/20 03:51:18;;;;;;;5.20;3.03;;;9.20;19.80;;;;;;5000356;28;20413;-74
2022/04/20 03:53:45;;;;;;;5.73;3.60;;;9.20;19.60;;;;;;5003200;28;20410;-75
2022/04/20 03:56:10;;;;;;;4.90;2.77;;;9.30;19.40;;;;;;5009848;28;20399;-74
2022/04/20 03:58:36;;;;;;;6.50;3.27;;;9.00;19.60;;;;;;4993568;28;20398;-75
2022/04/20 04:01:02;;;;;;;6.97;3.40;;;8.80;19.30;;;;;;4997889;28;20412;-74
2022/04/20 04:03:28;;;;;;;5.15;2.80;;;8.80;19.60;;;;;;4994653;28;20504;-74
2022/04/20 04:05:53;;;;;;;4.83;3.03;;;8.80;20.60;;;;;;4995939;28;20463;-74
2022/04/20 04:08:19;;;;;;;5.40;3.10;;;8.50;20.30;;;;;;5003126;28;20392;-75
2022/04/20 04:10:44;;;;;;;5.87;3.10;;;8.40;22.10;;;;;;4994658;28;20418;-73
2022/04/20 04:13:11;;;;;;;4.33;3.33;;;8.50;22.50;;;;;;4996941;28;20398;-74
2022/04/20 04:15:38;;;;;;;6.80;3.20;;;8.60;22.00;;;;;;4993927;28;20879;-75
2022/04/20 04:18:04;;;;;;;5.05;3.00;;;8.50;21.10;;;;;;5001614;28;20764;-75
2022/04/20 04:20:30;;;;;;;8.67;3.47;;;8.30;21.30;;;;;;5006233;28;20494;-74
2022/04/20 04:22:56;;;;;;;5.45;3.45;;;8.10;22.60;;;;;;4998965;28;20411;-74
2022/04/20 04:25:22;;;;;;;7.72;3.50;;;8.20;22.70;;;;;;5004456;28;20421;-74
2022/04/20 04:27:47;;;;;;;5.20;2.90;;;8.30;22.70;;;;;;5000414;28;20429;-75
2022/04/20 04:30:13;;;;;;;5.60;3.57;;;8.40;23.10;;;;;;4997078;28;20406;-75
2022/04/20 04:32:39;;;;;;;7.20;3.40;;;8.20;23.20;;;;;;4999000;28;20412;-74
2022/04/20 04:35:08;;;;;;;7.90;4.07;;;8.00;23.70;;;;;;5000095;28;20488;-74
2022/04/20 04:37:34;;;;;;;6.35;3.75;;;7.80;24.20;;;;;;4998548;28;20401;-76
2022/04/20 04:40:01;;;;;;;6.57;3.70;;;7.80;25.10;;;;;;4995919;28;20467;-74
2022/04/20 04:42:26;;;;;;;5.97;3.90;;;7.90;25.60;;;;;;4995843;28;20416;-75
2022/04/20 04:44:52;;;;;;;9.88;3.63;;;7.90;25.00;;;;;;4996355;28;20406;-76
2022/04/20 04:50:04;;;;;;;10.52;3.40;;;8.10;24.20;;;;;;4992625;28;20468;-75
2022/04/20 04:52:29;;;;;;;5.78;3.10;;;8.20;24.20;;;;;;5002962;28;20414;-75
2022/04/20 04:54:55;;;;;;;23.00;5.15;;;8.10;23.40;;;;;;5005121;28;21248;-75
2022/04/20 04:57:20;;;;;;;12.43;3.70;;;8.20;23.50;;;;;;5011547;28;20896;-76
2022/04/20 04:59:46;;;;;;;7.85;3.60;;;8.40;23.00;;;;;;5014092;28;20403;-75
2022/04/20 05:02:12;;;;;;;7.40;3.22;;;8.30;23.70;;;;;;5010787;28;20405;-78
2022/04/20 05:04:40;;;;;;;7.30;3.10;;;8.30;23.30;;;;;;5005431;28;20878;-75
2022/04/20 05:07:06;;;;;;;4.73;3.00;;;8.40;22.60;;;;;;5002684;28;20488;-74
2022/04/20 05:09:32;;;;;;;34.90;6.50;;;8.50;21.80;;;;;;5008171;28;20463;-74
2022/04/20 05:11:58;;;;;;;9.25;3.67;;;8.60;21.60;;;;;;4995456;28;20402;-75
2022/04/20 05:14:24;;;;;;;12.00;3.67;;;8.70;20.80;;;;;;5003864;28;20402;-75
2022/04/20 05:16:50;;;;;;;43.75;8.98;;;9.00;20.30;;;;;;5005880;28;20418;-75
2022/04/20 05:19:15;;;;;;;16.63;5.50;;;8.90;20.60;;;;;;5010046;28;20417;-75
2022/04/20 05:21:41;;;;;;;18.40;4.30;;;9.00;20.00;;;;;;5004310;28;20983;-75
2022/04/20 05:24:07;;;;;;;8.33;3.30;;;9.00;20.10;;;;;;5004567;28;21242;-75
2022/04/20 05:26:32;;;;;;;5.30;3.10;;;9.10;20.60;;;;;;5013071;28;20418;-75
2022/04/20 05:28:58;;;;;;;12.23;4.03;;;9.20;20.00;;;;;;5013934;28;20461;-75
2022/04/20 05:31:23;;;;;;;72.57;13.43;;;9.30;19.60;;;;;;5004949;28;20414;-75
2022/04/20 05:33:49;;;;;;;29.33;6.53;;;9.40;19.40;;;;;;5010748;28;20761;-75
2022/04/20 05:36:18;;;;;;;10.07;4.40;;;9.40;19.50;;;;;;5010546;28;20395;-76
2022/04/20 05:41:41;;;;;;;5.13;3.10;;;9.50;19.30;;;;;;5007625;28;20404;-74
2022/04/20 05:44:11;;;;;;;11.20;3.38;;;9.60;19.20;;;;;;5000241;28;20867;-74
2022/04/20 05:46:37;;;;;;;7.70;3.20;;;9.60;18.80;;;;;;5003117;28;20520;-74
2022/04/20 05:49:03;;;;;;;15.13;3.85;;;9.70;18.60;;;;;;5004359;28;20406;-73
2022/04/20 05:51:29;;;;;;;5.90;3.30;;;9.90;18.10;;;;;;4999803;28;20772;-74
2022/04/20 05:53:55;;;;;;;5.13;3.20;;;10.00;18.00;;;;;;4992944;28;20400;-73
2022/04/20 05:56:20;;;;;;;11.17;3.57;;;10.00;18.10;;;;;;4993998;28;20410;-76
2022/04/20 05:58:47;;;;;;;8.90;3.23;;;10.00;18.30;;;;;;5002298;28;20896;-75
2022/04/20 06:01:14;;;;;;;15.23;3.63;;;10.30;18.90;;;;;;5002508;28;20398;-74
2022/04/20 06:03:40;;;;;;;8.57;3.60;;;10.60;18.90;;;;;;5003813;28;20403;-76
2022/04/20 06:06:05;;;;;;;3.58;3.25;;;10.60;17.60;;;;;;5005440;28;20903;-74
2022/04/20 06:08:31;;;;;;;13.18;3.60;;;10.80;18.70;;;;;;4997587;28;20406;-75
2022/04/20 06:10:58;;;;;;;8.85;3.50;;;10.90;17.30;;;;;;5003475;28;20400;-75
2022/04/20 06:13:24;;;;;;;7.90;3.70;;;11.00;18.50;;;;;;4996163;28;20883;-75
2022/04/20 06:15:50;;;;;;;5.23;3.47;;;11.10;17.50;;;;;;5007907;28;20398;-76
2022/04/20 06:18:16;;;;;;;8.83;3.30;;;11.20;17.10;;;;;;5002628;28;20497;-74
2022/04/20 06:20:42;;;;;;;8.30;3.30;;;11.30;17.10;;;;;;4991597;28;20529;-76
2022/04/20 06:23:07;;;;;;;5.40;3.37;;;11.30;15.90;;;;;;4995696;28;20405;-75
2022/04/20 06:25:33;;;;;;;7.37;3.30;;;11.30;16.40;;;;;;5000866;28;20406;-76
2022/04/20 06:27:59;;;;;;;12.53;3.83;;;11.40;15.70;;;;;;5002938;28;20406;-75
2022/04/20 06:30:24;;;;;;;7.18;3.33;;;11.50;16.40;;;;;;4996815;28;20414;-77
2022/04/20 06:32:50;;;;;;;7.20;3.53;;;11.50;15.20;;;;;;5006476;28;20403;-75
2022/04/20 06:35:15;;;;;;;7.63;3.97;;;11.50;15.30;;;;;;5008006;28;20469;-75
2022/04/20 06:37:41;;;;;;;9.40;3.70;;;11.70;15.30;;;;;;5002021;28;20396;-75
2022/04/20 06:40:07;;;;;;;9.48;3.97;;;11.80;15.30;;;;;;4995396;28;20777;-75
2022/04/20 06:42:34;;;;;;;7.10;3.90;;;11.90;16.50;;;;;;4977372;28;20502;-74
2022/04/20 06:44:59;;;;;;;6.90;4.50;;;12.00;15.00;;;;;;4999857;28;20945;-74
2022/04/20 06:47:25;;;;;;;10.90;4.10;;;12.20;15.00;;;;;;5000743;28;20440;-73
2022/04/20 06:49:52;;;;;;;8.10;4.32;;;12.40;13.50;;;;;;4995783;28;20429;-75
2022/04/20 07:00:33;;;;;;;7.97;3.63;;;12.50;13.10;;;;;;5011471;28;20410;-76
2022/04/20 07:03:00;;;;;;;4.70;3.65;;;12.60;13.30;;;;;;4999473;28;20405;-75
2022/04/20 07:05:26;;;;;;;7.22;3.60;;;12.80;13.10;;;;;;5011514;28;20485;-74
2022/04/20 07:07:51;;;;;;;5.15;3.20;;;12.80;12.90;;;;;;5007932;28;20441;-76
2022/04/20 07:10:17;;;;;;;12.03;3.63;;;12.90;13.00;;;;;;5001602;28;20971;-75
2022/04/20 07:12:42;;;;;;;10.33;3.80;;;12.90;12.90;;;;;;4999198;28;20403;-75
2022/04/20 07:15:08;;;;;;;5.20;3.22;;;13.00;12.70;;;;;;4994277;28;20901;-76
2022/04/20 07:17:34;;;;;;;5.10;3.50;;;13.00;11.90;;;;;;4992534;28;20881;-76
2022/04/20 07:20:01;;;;;;;5.80;4.07;;;13.00;12.60;;;;;;4990923;28;20415;-75
2022/04/20 07:22:27;;;;;;;6.65;3.30;;;13.00;13.00;;;;;;4988584;28;20418;-76
2022/04/20 07:24:53;;;;;;;10.85;3.50;;;13.10;11.90;;;;;;4992351;28;20402;-74
2022/04/20 07:27:19;;;;;;;8.60;3.83;;;13.30;14.10;;;;;;4991560;28;20418;-77
2022/04/20 07:29:44;;;;;;;9.27;3.88;;;13.60;12.90;;;;;;4990196;28;20434;-76
2022/04/20 07:32:10;;;;;;;5.07;3.53;;;13.60;11.00;;;;;;4990084;28;20440;-76
2022/04/20 07:34:35;;;;;;;3.90;3.50;;;13.60;10.20;;;;;;4987260;28;20468;-75
2022/04/20 07:37:01;;;;;;;7.55;3.50;;;13.60;9.50;;;;;;4989445;28;20760;-74
2022/04/20 07:39:27;;;;;;;9.60;3.37;;;13.60;9.90;;;;;;4990856;28;20850;-76
2022/04/20 07:41:52;;;;;;;6.90;2.90;;;13.70;9.30;;;;;;4989803;28;20425;-74
2022/04/20 07:44:18;;;;;;;6.90;3.80;;;13.70;9.80;;;;;;4991421;28;20759;-75
2022/04/20 07:46:43;;;;;;;5.43;3.10;;;13.80;9.00;;;;;;4991677;28;20418;-75
2022/04/20 07:51:53;;;;;;;6.18;2.92;;;13.90;8.30;;;;;;4987758;28;20418;-75
2022/04/20 07:54:18;;;;;;;15.27;3.40;;;14.00;8.30;;;;;;4987386;28;20438;-75
2022/04/20 07:56:44;;;;;;;5.32;2.95;;;14.10;8.80;;;;;;4990792;28;20398;-75
2022/04/20 07:59:10;;;;;;;8.48;3.40;;;14.10;7.50;;;;;;4991879;28;20466;-74
2022/04/20 08:01:35;;;;;;;8.60;3.43;;;14.10;7.80;;;;;;4993996;28;20421;-74
2022/04/20 08:04:01;;;;;;;7.70;3.40;;;14.10;7.70;;;;;;4985827;28;20414;-74
2022/04/20 08:06:27;;;;;;;6.40;3.20;;;14.20;7.90;;;;;;4989855;28;20422;-76
2022/04/20 08:08:52;;;;;;;7.40;3.40;;;14.20;7.80;;;;;;4986759;28;20498;-75
2022/04/20 08:11:18;;;;;;;6.77;3.50;;;14.40;8.20;;;;;;4990003;28;20743;-75
2022/04/20 08:16:29;;;;;;;6.57;4.25;;;14.70;8.00;;;;;;4997624;28;20799;-75
2022/04/20 08:18:54;;;;;;;11.60;3.67;;;14.70;8.60;;;;;;4997375;28;20415;-76
2022/04/20 08:21:20;;;;;;;4.43;3.10;;;14.60;7.10;;;;;;4992888;28;20499;-75
2022/04/20 08:23:46;;;;;;;7.90;3.50;;;14.70;7.10;;;;;;4992029;28;20911;-74
2022/04/20 08:26:13;;;;;;;8.20;3.67;;;14.60;6.60;;;;;;4985546;28;20421;-75
2022/04/20 08:28:39;;;;;;;10.82;4.00;;;14.60;7.30;;;;;;4991668;28;20399;-77
2022/04/20 08:31:05;;;;;;;7.05;3.50;;;14.70;8.90;;;;;;4997842;28;20433;-74
2022/04/20 08:33:30;;;;;;;4.13;3.40;;;14.80;8.60;;;;;;4999254;28;20398;-76
2022/04/20 08:35:56;;;;;;;7.90;3.60;;;14.90;7.30;;;;;;4992623;28;20513;-75
2022/04/20 08:38:22;;;;;;;10.73;3.22;;;14.80;6.70;;;;;;4992978;28;20442;-75
2022/04/20 08:40:49;;;;;;;3.50;3.10;;;14.80;6.70;;;;;;4988408;28;20425;-75
2022/04/20 08:43:15;;;;;;;8.98;4.03;;;15.00;7.70;;;;;;4992516;28;20908;-74
2022/04/20 08:45:41;;;;;;;5.20;3.50;;;14.90;6.90;;;;;;4997766;28;20449;-77
2022/04/20 08:48:07;;;;;;;4.97;3.40;;;14.90;6.90;;;;;;5004453;28;20455;-76
2022/04/20 08:50:33;;;;;;;6.35;3.13;;;14.90;8.10;;;;;;4998565;28;20426;-77
2022/04/20 08:53:00;;;;;;;4.20;3.25;;;15.10;6.80;;;;;;4996829;28;20402;-76
2022/04/20 08:55:27;;;;;;;5.82;4.00;;;15.20;7.50;;;;;;4999010;28;20468;-79
2022/04/20 08:57:53;;;;;;;5.68;3.60;;;15.40;6.30;;;;;;4997925;28;20941;-76
2022/04/20 09:00:24;;;;;;;5.45;3.40;;;15.40;7.80;;;;;;5001900;28;20418;-78
2022/04/20 09:02:55;;;;;;;4.80;3.50;;;15.40;5.60;;;;;;5000678;28;20867;-77
2022/04/20 09:05:22;;;;;;;9.88;3.67;;;15.30;6.00;;;;;;5017202;28;20424;-77
2022/04/20 09:07:48;;;;;;;5.93;3.35;;;15.40;6.90;;;;;;5015760;28;20506;-77
2022/04/20 09:10:16;;;;;;;4.97;3.42;;;15.40;6.90;;;;;;5011532;28;20752;-78
2022/04/20 09:12:43;;;;;;;8.73;3.67;;;15.40;6.00;;;;;;5001647;28;20394;-77
2022/04/20 09:15:10;;;;;;;5.50;3.65;;;15.50;5.60;;;;;;5012454;28;20926;-78
2022/04/20 09:17:42;;;;;;;8.05;3.15;;;15.50;5.70;;;;;;5014313;28;20403;-77
2022/04/20 09:20:09;;;;;;;5.97;3.75;;;15.50;5.40;;;;;;5001503;28;20397;-77
2022/04/20 09:22:35;;;;;;;6.15;4.05;;;15.40;5.80;;;;;;4996862;28;20453;-77
2022/04/20 09:25:11;;;;;;;5.32;3.60;;;15.30;7.90;;;;;;5006972;28;20404;-77
2022/04/20 09:27:41;;;;;;;6.60;3.90;;;15.50;7.30;;;;;;5006237;28;20398;-77
2022/04/20 09:30:15;;;;;;;7.93;3.40;;;15.60;6.00;;;;;;5001132;28;20760;-76
2022/04/20 09:32:43;;;;;;;7.47;4.00;;;15.60;5.50;;;;;;5004277;28;20410;-76
2022/04/20 09:35:14;;;;;;;8.70;3.53;;;15.50;6.00;;;;;;5012430;28;20420;-76
2022/04/20 09:37:42;;;;;;;6.03;3.00;;;15.50;6.30;;;;;;5009215;28;20418;-76
2022/04/20 09:40:16;;;;;;;5.80;3.13;;;15.60;6.60;;;;;;5004988;28;20702;-77
2022/04/20 09:43:02;;;;;;;6.50;3.40;;;15.70;6.30;;;;;;4997057;28;20394;-75
2022/04/20 09:45:29;;;;;;;8.57;3.40;;;15.90;5.40;;;;;;5000763;28;20410;-78
2022/04/20 09:50:40;;;;;;;5.43;3.17;;;16.20;6.60;;;;;;5007563;28;20395;-75
2022/04/20 09:53:07;;;;;;;7.60;3.73;;;16.30;7.00;;;;;;5006720;28;20477;-77
2022/04/20 09:55:37;;;;;;;7.77;3.77;;;16.40;5.80;;;;;;5004953;28;20454;-77
2022/04/20 09:58:17;;;;;;;4.35;3.70;;;16.50;5.70;;;;;;5008534;28;20453;-77
2022/04/20 10:00:48;;;;;;;6.00;3.60;;;16.40;6.10;;;;;;5009716;28;20401;-77
2022/04/20 10:03:27;;;;;;;4.93;2.92;;;16.40;5.70;;;;;;5000605;28;20909;-76
2022/04/20 10:05:55;;;;;;;5.15;3.40;;;16.50;5.00;;;;;;4983386;28;20454;-76
2022/04/20 10:08:22;;;;;;;3.80;3.20;;;16.40;6.00;;;;;;4998001;28;20430;-77
2022/04/20 10:10:49;;;;;;;5.75;3.40;;;16.40;5.80;;;;;;5017527;28;20423;-77
2022/04/20 10:13:15;;;;;;;6.40;3.23;;;16.50;4.20;;;;;;5010976;28;20426;-77
2022/04/20 10:18:29;;;;;;;4.93;4.00;;;16.20;4.70;;;;;;5009925;28;20439;-76
2022/04/20 10:20:57;;;;;;;8.50;3.80;;;16.20;4.80;;;;;;5022848;28;20439;-76
2022/04/20 10:23:24;;;;;;;6.38;3.40;;;16.20;5.90;;;;;;5012059;28;20416;-76
2022/04/20 10:25:52;;;;;;;3.60;2.92;;;16.30;4.70;;;;;;5004500;28;20469;-76
2022/04/20 10:28:52;;;;;;;8.95;3.53;;;16.30;5.30;;;;;;4998658;28;20410;-77
2022/04/20 10:31:28;;;;;;;4.72;3.72;;;16.40;5.90;;;;;;5002429;28;20775;-76
2022/04/20 10:33:55;;;;;;;9.75;4.03;;;16.50;4.50;;;;;;5010730;28;20414;-76
2022/04/20 10:36:29;;;;;;;5.55;3.97;;;16.50;5.90;;;;;;5020400;28;20411;-75
2022/04/20 10:39:22;;;;;;;5.10;3.58;;;16.50;5.40;;;;;;5015056;28;20465;-74
2022/04/20 10:42:15;;;;;;;4.82;3.30;;;16.60;6.80;;;;;;5004903;28;20915;-74
2022/04/20 10:45:07;;;;;;;3.80;3.03;;;16.70;5.90;;;;;;5016950;28;20438;-76
2022/04/20 10:47:35;;;;;;;3.20;2.85;;;17.00;5.20;;;;;;5010273;28;20398;-76
2022/04/20 10:50:14;;;;;;;5.88;3.30;;;16.80;3.40;;;;;;5012066;28;20718;-77
2022/04/20 10:52:42;;;;;;;5.95;3.40;;;16.70;4.20;;;;;;5015754;28;20413;-77
2022/04/20 10:55:11;;;;;;;6.45;3.63;;;16.80;5.50;;;;;;5014641;28;20435;-75
2022/04/20 10:57:41;;;;;;;4.88;3.90;;;16.80;4.00;;;;;;5012385;28;20393;-78
2022/04/20 11:00:16;;;;;;;3.30;2.97;;;16.80;6.20;;;;;;5004603;28;20395;-76
2022/04/20 11:02:48;;;;;;;6.90;3.40;;;16.90;5.30;;;;;;5001102;28;20411;-76
2022/04/20 11:05:18;;;;;;;8.93;3.75;;;17.00;5.10;;;;;;4995655;28;20406;-75
2022/04/20 11:08:12;;;;;;;5.63;3.67;;;17.10;4.90;;;;;;5016638;28;20473;-79
2022/04/20 11:10:42;;;;;;;6.07;3.72;;;17.20;3.70;;;;;;4996166;28;20509;-75
2022/04/20 11:19:11;;;;;;;6.22;3.40;;;17.20;4.90;;;;;;5000210;28;20942;-77
2022/04/20 11:21:37;;;;;;;9.27;3.70;;;17.20;3.80;;;;;;4992929;28;20426;-77
2022/04/20 11:24:11;;;;;;;12.20;4.15;;;17.00;4.20;;;;;;5002033;28;20441;-77
2022/04/20 11:26:39;;;;;;;8.82;3.28;;;17.00;4.70;;;;;;5011016;28;20469;-76
2022/04/20 11:29:17;;;;;;;7.00;3.50;;;17.10;6.10;;;;;;5003708;28;20489;-78
2022/04/20 11:31:45;;;;;;;7.68;3.50;;;17.20;5.20;;;;;;5005511;28;20472;-77
2022/04/20 11:34:14;;;;;;;6.80;3.53;;;17.40;4.00;;;;;;5006539;28;20413;-77
2022/04/20 11:36:42;;;;;;;4.47;3.40;;;17.50;4.70;;;;;;5008481;28;20417;-78
2022/04/20 11:39:11;;;;;;;4.30;3.20;;;17.60;4.50;;;;;;5010324;28;20472;-76
2022/04/20 11:41:45;;;;;;;4.60;3.20;;;17.70;4.00;;;;;;4993779;28;20847;-76
2022/04/20 11:44:24;;;;;;;6.68;3.28;;;17.60;4.50;;;;;;4994314;28;20455;-74
2022/04/20 11:46:52;;;;;;;4.05;3.33;;;17.60;4.30;;;;;;4996599;28;20434;-78
2022/04/20 11:49:18;;;;;;;6.27;3.80;;;17.70;5.30;;;;;;4989212;28;20503;-76
2022/04/20 11:51:57;;;;;;;8.02;3.65;;;17.80;5.00;;;;;;4995793;28;20398;-79
2022/04/20 11:54:24;;;;;;;9.80;3.30;;;17.90;4.00;;;;;;4989342;28;20415;-75
2022/04/20 11:56:50;;;;;;;4.30;3.30;;;17.90;5.10;;;;;;4989664;28;20422;-76
2022/04/20 11:59:21;;;;;;;7.50;3.53;;;18.00;3.80;;;;;;4998853;28;20832;-76
2022/04/20 12:01:47;;;;;;;4.75;3.70;;;18.20;3.40;;;;;;4995654;28;20426;-76
2022/04/20 12:04:20;;;;;;;4.43;3.92;;;18.20;2.70;;;;;;5001717;28;20404;-77
2022/04/20 12:06:53;;;;;;;4.88;3.80;;;18.00;4.30;;;;;;4996131;28;20418;-76
2022/04/20 12:09:30;;;;;;;7.93;4.30;;;18.00;3.10;;;;;;4996497;28;20460;-77
2022/04/20 12:11:58;;;;;;;4.70;4.20;;;17.80;4.10;;;;;;4995329;28;20475;-76
2022/04/20 12:14:30;;;;;;;6.07;3.97;;;17.90;4.10;;;;;;4994940;28;20406;-76
2022/04/20 12:17:00;;;;;;;6.88;3.90;;;18.00;3.70;;;;;;4996733;28;20425;-76
2022/04/20 12:19:30;;;;;;;7.45;4.00;;;17.80;3.20;;;;;;4993124;28;20915;-76
2022/04/20 12:22:09;;;;;;;19.08;11.35;;;17.80;3.70;;;;;;4993589;28;20457;-76
2022/04/20 12:24:37;;;;;;;10.77;7.72;;;17.80;3.40;;;;;;4993623;28;20903;-74
2022/04/20 12:27:04;;;;;;;8.15;3.75;;;17.70;3.80;;;;;;5000447;28;20418;-73
2022/04/20 12:29:32;;;;;;;6.20;3.80;;;17.80;5.60;;;;;;4993278;28;20402;-74
2022/04/20 12:31:58;;;;;;;9.10;4.30;;;18.10;4.50;;;;;;4992563;28;20405;-74
2022/04/20 12:34:26;;;;;;;5.90;4.03;;;18.30;4.40;;;;;;4992918;28;20413;-74
2022/04/20 12:36:54;;;;;;;5.18;4.22;;;18.30;2.50;;;;;;4993175;28;21012;-76
2022/04/20 12:39:28;;;;;;;4.80;4.28;;;18.00;2.90;;;;;;4996219;28;20771;-74
2022/04/20 12:42:06;;;;;;;6.80;3.85;;;17.90;3.80;;;;;;4995465;28;20553;-74
2022/04/20 12:44:54;;;;;;;4.60;4.10;;;18.20;3.80;;;;;;4997651;28;21008;-78
2022/04/20 12:47:22;;;;;;;6.43;4.00;;;18.40;3.20;;;;;;4991428;28;20414;-77
2022/04/20 12:50:10;;;;;;;9.10;3.88;;;18.60;3.10;;;;;;4997989;28;20398;-76
2022/04/20 12:52:36;;;;;;;10.70;4.30;;;18.70;4.10;;;;;;4990052;28;20398;-73
2022/04/20 12:55:09;;;;;;;5.13;3.85;;;18.90;3.00;;;;;;4997234;28;20868;-74
2022/04/20 13:03:35;;;;;;;3.53;3.17;;;19.10;2.90;;;;;;4993423;28;20910;-75
2022/04/20 13:06:01;;;;;;;5.03;3.88;;;19.10;2.10;;;;;;4996688;28;20476;-75
2022/04/20 13:08:27;;;;;;;4.17;3.50;;;19.20;2.70;;;;;;4997266;28;20493;-75
2022/04/20 13:10:53;;;;;;;4.10;3.70;;;19.30;2.60;;;;;;4999476;28;20438;-76
2022/04/20 13:13:28;;;;;;;7.87;4.13;;;19.00;3.40;;;;;;5012225;28;20450;-75
2022/04/20 13:15:54;;;;;;;8.10;4.20;;;19.00;3.40;;;;;;4996559;28;20398;-75
2022/04/20 13:18:20;;;;;;;5.78;3.72;;;19.10;3.50;;;;;;4993490;28;20410;-75
2022/04/20 13:20:46;;;;;;;7.47;3.90;;;19.10;2.50;;;;;;5005381;28;20421;-76
2022/04/20 13:23:12;;;;;;;6.93;3.63;;;19.30;2.40;;;;;;5013824;28;20398;-76
2022/04/20 13:28:22;;;;;;;7.63;4.10;;;19.10;2.00;;;;;;4998115;28;20414;-77
2022/04/20 13:30:49;;;;;;;18.23;4.15;;;19.90;1.40;;;;;;5012215;28;20427;-76
2022/04/20 13:33:15;;;;;;;7.68;4.03;;;20.50;1.00;;;;;;5001537;28;20410;-74
2022/04/20 13:35:43;;;;;;;5.60;4.43;;;21.00;1.20;;;;;;4998227;28;20433;-76
2022/04/20 13:38:10;;;;;;;4.35;3.95;;;21.40;1.00;;;;;;5001099;28;20418;-77
2022/04/20 13:40:38;;;;;;;8.15;4.10;;;21.50;1.00;;;;;;4996233;28;20433;-77
2022/04/20 13:43:04;;;;;;;7.80;4.10;;;21.50;1.00;;;;;;4998548;28;20716;-77